AirNav   ProFlight Series 2 Aviation Headset
 
 1424 users online  

0MO4 Bert Walter Berkowitz Heliport
Kansas City, Missouri, USA

GOING TO KANSAS CITY?


FAA INFORMATION EFFECTIVE 18 JUNE 2020

Location

FAA Identifier: 0MO4
Lat/Long: 39-05-01.1600N 094-34-36.9100W
39-05.019333N 094-34.615167W
39.0836556,-94.5769194
(estimated)
Elevation: 890 ft. / 271 m (estimated)
Variation: 05E (1985)
Time zone: UTC -5 (UTC -6 during Standard Time)
Zip code: 64108

Heliport Operations

Heliport use: Private use. Permission required prior to landing
Activation date: 06/1991
Control tower: no
ARTCC: KANSAS CITY CENTER
FSS: COLUMBIA FLIGHT SERVICE STATION
Attendance: CONTINUOUS
Wind indicator: yes
Segmented circle: no
Lights: FOR FLOOD LGTS CALL 816-556-3133.

Heliport Communications

WX ASOS at MKC (2.5 nm N): PHONE 816-329-2843
WX ASOS at LXT (12 nm SE): 124.175 (816-347-9807)
WX ASOS at MCI (14 nm NW): PHONE 816-329-2808
WX ASOS at OJC (16 nm SW): 119.35 (913-780-6969)
WX AWOS-3 at GPH (19 nm NE): 120.275 (816-407-3399)

Nearby radio navigation aids

VOR radial/distance  VOR name  Freq  Var
MCIr143/14.2KANSAS CITY VORTAC113.2505E
ANXr261/20.9NAPOLEON VORTAC114.0007E

Heliport Services

Runway Information

Helipad H1

Dimensions: 18 x 18 ft. / 5 x 5 m
Surface: concrete
Runway edge lights: FLD
Latitude: 39-05.019333N
Longitude: 094-34.615167W
Elevation: 890.0 ft.
Traffic pattern: leftleft

Heliport Ownership and Management from official FAA records

Ownership: Publicly-owned
Owner: TRUMAN MEDICAL CENTER, INC.
2301 HOLMES
KANSAS CITY, MO 64108
Phone 816-556-3133
Manager: JACK L NICHOLS
2301 HOLMES
KANSAS CITY, MO 64108
Phone 816-556-3133

Additional Remarks

OWNER DESIRES HELIPAD NOT BE CHARTED.
FOR CD CTC KANSAS CITY APCH AT 816-329-2710.

Instrument Procedures

There are no published instrument procedures at 0MO4.

Some nearby airports with instrument procedures:

KMKC - Charles B Wheeler Downtown Airport (2 nm N)
KLXT - Lee's Summit Municipal Airport (12 nm SE)
KMCI - Kansas City International Airport (14 nm NW)
KOJC - Johnson County Executive Airport (16 nm SW)
3GV - East Kansas City Airport (17 nm E)
KGPH - Midwest National Air Center Airport (19 nm NE)
 
Loc | Ops | Rwys | IFR | FBO | Links
Com | Nav | Svcs | Stats | Notes
Area around 0MO4 (Bert Walter Berkowitz Heliport)
 
Road maps at: MapQuest Bing Google
 
Aerial photo
No photo
 
Sectional chart

 
Airport distance calculator
Flying to Bert Walter Berkowitz Heliport? Find the distance to fly.

From to 0MO4

Sunrise and sunset
Times for 15-Jul-2020
 Local
(UTC-5)
 Zulu
(UTC)
Morning civil twilight05:3510:35
Sunrise06:0611:06
Sunset20:4201:42
Evening civil twilight21:1302:13

Current date and time
Zulu (UTC)  15-Jul-2020 18:38:06
Local (UTC-5)  15-Jul-2020 13:38:06
 
METAR
KMKC 
2nm NW 
151754Z 10SM -RA SCT010 BKN047 BKN075 23/21 A2993 RMK AO2 RAE23B48 SLP126 P0000 60084 T02330211 10233 20206 50002
KLXT 
12nm SE 
151753Z AUTO 09004KT 10SM FEW006 SCT080 BKN120 23/21 A2993 RMK AO2 RAE48 SLP124 P0002 60076 T02280206 10228 20211 50007
KMCI 
15nm NW 
151753Z 23008KT 10SM BKN008 23/13 A2994 RMK AO2 RAE15 SLP126 P0001 60090 T02330133 10233 20200 57016
KOJC 
16nm SW 
151753Z 07008KT 10SM FEW009 FEW035 23/23 A2993 RMK AO2 RAE48 SLP124 P0007 60065 T02330228 10233 20194 50001 $
KGPH 
19nm NE 
151815Z AUTO 25005KT 10SM BKN010 22/22 A2992 RMK AO2
TAF
KMKC 
2nm NW 
151724Z 1518/1618 01006KT 6SM -RA OVC050 FM152000 02007KT P6SM SCT050 FM161300 09004KT 3SM BR OVC007 FM161500 20003KT 6SM BR OVC015
KMCI 
15nm NW 
151724Z 1518/1618 02007KT P6SM BKN035 FM161000 03004KT 5SM BR OVC009 FM161500 20003KT P6SM OVC015
NOTAMs
Click for the latest NOTAMs
NOTAMs are issued by the DoD/FAA and will open in a separate window not controlled by AirNav.

 

 
 

Would you like to see your business listed on this page?

 If your business provides an interesting product or service to pilots, flight crews, aircraft, or users of the Bert Walter Berkowitz Heliport, you should consider listing it here.  To start the listing process, click on the button below
 
Add a business
 

Other Pages about Bert Walter Berkowitz Heliport

Update a link
 
Copyright © AirNav, LLC. All rights reserved. Privacy Policy  Contact